This is the latest recevied weather packets stored in our database for station/object VK2HIM-1. If no packets are shown the sender has not sent any weather packets the latest 10 day(s).
| Time | Temp. | Humidity | Pressure | Rain* | Wind** | Luminosity | Snow |
|---|---|---|---|---|---|---|---|
| 1777256378 | 25° C | 66% | 1023.5 hPa | 0 mm | - | - | - |
| 1777254577 | 24.44° C | 67% | 1023.8 hPa | 0 mm | - | - | - |
| 1777252777 | 22.78° C | 69% | 1024.3 hPa | 0 mm | - | - | - |
| 1777250977 | 22.78° C | 67% | 1024.6 hPa | 0 mm | - | - | - |
| 1777249179 | 21.67° C | 69% | 1024.7 hPa | 0 mm | - | - | - |
| 1777247378 | 19.44° C | 77% | 1024.7 hPa | 0 mm | - | - | - |
| 1777245578 | 18.89° C | 75% | 1024.7 hPa | 0 mm | - | - | - |
| 1777243778 | 16.67° C | 83% | 1024.4 hPa | 0 mm | - | - | - |
| 1777241978 | 14.44° C | 91% | 1024.2 hPa | 0 mm | - | - | - |
| 1777240178 | 12.78° C | 88% | 1023.9 hPa | 0 mm | - | - | - |
| 1777238378 | 12.22° C | 87% | 1023.2 hPa | 0 mm | - | - | - |
| 1777236582 | 13.89° C | 87% | 1022.5 hPa | 0 mm | - | - | - |
| 1777234782 | 12.78° C | 88% | 1022.3 hPa | 0 mm | - | - | - |
| 1777232982 | 12.78° C | 88% | 1022.3 hPa | 0 mm | - | - | - |
| 1777231182 | 12.78° C | 86% | 1022.2 hPa | 0 mm | - | - | - |
| 1777229382 | 13.33° C | 87% | 1022.4 hPa | 0 mm | - | - | - |
| 1777227581 | 13.33° C | 84% | 1022.4 hPa | 0 mm | - | - | - |
| 1777225782 | 15° C | 78% | 1022.4 hPa | 0 mm | - | - | - |
| 1777223982 | 15.56° C | 79% | 1022.1 hPa | 0 mm | - | - | - |
| 1777222180 | 15.56° C | 78% | 1022.2 hPa | 0 mm | - | - | - |
| 1777220381 | 15° C | 80% | 1022.4 hPa | 0 mm | - | - | - |
| 1777218581 | 15° C | 80% | 1022.7 hPa | 0 mm | - | - | - |
| 1777216781 | 13.89° C | 80% | 1023 hPa | 0 mm | - | - | - |
| 1777214981 | 15° C | 78% | 1023 hPa | 0 mm | - | - | - |
| 1777213181 | 16.11° C | 76% | 1023.2 hPa | 0 mm | - | - | - |
* Rain latest hour (hover to see other rain measurements)
** Current wind speed in m/s (hover to see current wind gust speed)